Latest Weather Observations for Cape Sorell

IDT60801

Issued at 4:32 pm EST Thursday 29 September 2016 (issued every 30 minutes, with the page automatically refreshed every 10 minutes)

About weather observations | Map of weather stations | Latest weather observations for TAS | Other Formats
Station Details ID: 097000 Name: CAPE SORELL Lat: -42.20 Lon: 145.17 Height: 19.3 m
Data from the previous 72 hours. | See also: Recent months at Cape Sorell
Date/Time
EST
Temp
°C
App
Temp
°C
Dew
Point
°C
Rel
Hum
%
Delta-T
°C
Wind Press
QNH
hPa
Press
MSL
hPa
Rain since
9am
mm
Dir  Spd
km/h
Gust
km/h
Spd
kts
Gust
kts
29/04:30pm 14.1 9.4 10.7 80 1.8 NE 26 35 14 19 987.6 987.6 0.2
29/04:00pm 14.5 12.2 11.7 83 1.5 ESE 15 20 8 11 987.9 987.9 0.2
29/03:30pm 14.3 12.3 11.5 83 1.5 SE 13 19 7 10 988.0 988.0 0.2
29/03:00pm 14.0 11.9 11.0 82 1.6 SE 13 20 7 11 988.2 988.2 0.2
29/02:30pm 13.5 9.8 10.1 80 1.8 SE 20 28 11 15 988.4 988.4 0.2
29/02:00pm 14.0 10.7 9.6 75 2.3 SE 17 26 9 14 988.8 988.8 0.0
29/01:30pm 14.7 11.2 10.1 74 2.4 SE 19 28 10 15 989.0 989.0 0.0
29/01:00pm 14.2 9.6 9.6 74 2.4 ESE 24 35 13 19 989.5 989.5 0.0
29/12:30pm 14.6 9.3 9.8 73 2.5 SE 28 39 15 21 989.6 989.6 0.0
29/12:00pm 14.7 10.5 9.7 72 2.6 ESE 22 32 12 17 990.0 990.0 0.0
29/11:30am 14.6 10.6 9.2 70 2.8 SE 20 28 11 15 990.4 990.4 0.0
29/11:00am 15.2 12.9 8.9 66 3.2 E 11 17 6 9 990.7 990.7 0.0
29/10:30am 15.0 12.6 8.5 65 3.3 NE 11 15 6 8 990.8 990.8 0.0
29/10:00am 15.2 10.2 8.2 63 3.6 ENE 24 32 13 17 990.6 990.6 0.0
29/09:30am 15.4 9.2 7.7 60 3.8 ENE 30 39 16 21 990.9 990.9 0.0
29/09:00am 14.9 9.4 7.7 62 3.6 E 26 41 14 22 990.7 990.7 0.2
29/08:39am 14.9 9.0 7.7 62 3.6 ENE 28 46 15 25 991.0 991.0 0.2
29/08:31am 14.9 4.1 7.7 62 3.6 NE 54 80 29 43 990.5 990.5 0.2
29/08:30am 15.0 3.7 7.8 62 3.6 NE 57 80 31 43 990.4 990.4 0.2
29/08:01am 15.1 5.0 7.6 61 3.7 ENE 50 72 27 39 989.5 989.5 0.2
29/08:00am 15.1 5.4 7.6 61 3.8 ENE 48 72 26 39 989.5 989.5 0.2
29/07:58am 15.0 6.1 7.5 61 3.7 ENE 44 72 24 39 989.5 989.5 0.2
29/07:51am 15.0 8.7 7.3 60 3.8 ENE 30 52 16 28 990.8 990.8 0.2
29/07:30am 14.9 10.1 7.5 61 3.7 NE 22 32 12 17 992.3 992.3 0.2
29/07:00am 15.1 10.2 6.9 58 4.1 NE 22 37 12 20 992.6 992.6 0.2
29/06:30am 15.0 10.0 4.7 50 4.8 NE 20 32 11 17 992.8 992.8 0.2
29/06:00am 14.8 9.1 4.8 51 4.7 ENE 24 37 13 20 992.0 992.0 0.2
29/05:30am 14.8 7.3 6.1 56 4.2 NE 35 59 19 32 992.0 992.0 0.2
29/05:00am 14.7 6.4 6.0 56 4.2 NE 39 65 21 35 992.1 992.1 0.2
29/04:44am 14.4 7.7 5.5 55 4.2 NE 30 52 16 28 992.5 992.5 0.2
29/04:30am 14.0 7.9 4.6 53 4.3 ENE 26 35 14 19 992.9 992.9 0.2
29/04:00am 13.7 8.3 4.6 54 4.2 NE 22 33 12 18 993.9 993.9 0.2
29/03:30am 13.7 7.4 4.0 52 4.4 ENE 26 35 14 19 994.2 994.2 0.2
29/03:00am 13.5 7.2 3.8 52 4.4 ENE 26 35 14 19 994.5 994.5 0.2
29/02:32am 13.7 4.6 3.8 51 4.5 ENE 41 61 22 33 994.9 994.9 0.2
29/02:30am 13.8 4.0 3.6 50 4.6 ENE 44 61 24 33 994.8 994.8 0.2
29/02:01am 13.3 5.5 4.7 56 4.0 NE 35 54 19 29 995.9 995.9 0.2
29/02:00am 13.3 5.5 4.7 56 4.0 NE 35 54 19 29 995.9 995.9 0.2
29/01:54am 13.2 6.0 4.9 57 3.8 NE 32 54 17 29 995.7 995.7 0.2
29/01:30am 12.1 7.7 4.8 61 3.3 ENE 17 32 9 17 996.9 996.9 0.2
29/01:00am 11.8 6.7 4.1 59 3.5 ENE 20 37 11 20 997.5 997.5 0.2
29/12:30am 11.9 5.9 3.4 56 3.8 ENE 24 33 13 18 998.4 998.4 0.2
29/12:00am 10.8 6.0 2.4 56 3.6 ENE 17 20 9 11 998.8 998.8 0.2
 
Date/Time
EST
Temp
°C
App
Temp
°C
Dew
Point
°C
Rel
Hum
%
Delta-T
°C
Wind Press
QNH
hPa
Press
MSL
hPa
Rain since
9am
mm
Dir  Spd
km/h
Gust
km/h
Spd
kts
Gust
kts
28/11:30pm 10.6 5.7 1.7 54 3.7 ENE 17 22 9 12 999.1 999.1 0.2
28/11:00pm 9.9 5.8 4.3 68 2.5 E 15 20 8 11 999.6 999.6 0.2
28/10:30pm 9.8 5.8 4.8 71 2.2 E 15 20 8 11 1000.3 1000.3 0.2
28/10:00pm 9.5 5.8 4.5 71 2.2 E 13 20 7 11 1000.5 1000.5 0.2
28/09:30pm 10.4 6.6 5.6 72 2.2 ENE 15 20 8 11 1001.2 1001.2 0.2
28/09:00pm 9.8 6.2 5.2 73 2.1 E 13 13 7 7 1001.5 1001.5 0.2
28/08:30pm 10.4 6.2 5.6 72 2.2 ESE 17 20 9 11 1001.8 1001.8 0.2
28/08:00pm 9.9 6.7 4.9 71 2.3 ESE 11 13 6 7 1002.8 1002.8 0.2
28/07:30pm 10.0 7.5 4.6 69 2.4 ESE 7 9 4 5 1003.3 1003.3 0.2
28/07:00pm 10.4 8.4 4.5 67 2.7 SE 4 6 2 3 1003.1 1003.1 0.2
28/06:30pm 10.9 9.4 4.8 66 2.8 SSE 2 2 1 1 1002.9 1002.9 0.2
28/06:00pm 11.9 10.1 5.3 64 3.1 SSW 4 6 2 3 1002.8 1002.8 0.2
28/05:30pm 13.2 10.9 5.9 61 3.4 SW 7 9 4 5 1002.8 1002.8 0.2
28/05:00pm 13.6 11.3 5.7 59 3.7 WSW 7 9 4 5 1003.4 1003.4 0.2
28/04:30pm 14.1 11.8 5.5 56 4.1 WSW 7 9 4 5 1003.1 1003.1 0.2
28/04:00pm 14.5 11.8 5.6 55 4.2 SW 9 11 5 6 1002.8 1002.8 0.2
28/03:30pm 14.7 12.0 5.8 55 4.2 SW 9 11 5 6 1003.0 1003.0 0.2
28/03:00pm 14.6 12.3 5.7 55 4.3 WSW 7 9 4 5 1003.6 1003.6 0.2
28/02:30pm 15.8 12.9 6.3 53 4.6 WNW 11 13 6 7 1004.4 1004.4 0.2
28/02:00pm 16.0 13.7 7.5 57 4.3 WNW 9 11 5 6 1005.2 1005.2 0.2
28/01:30pm 15.7 13.7 7.2 57 4.2 WNW 7 11 4 6 1005.8 1005.8 0.2
28/01:00pm 15.9 13.6 7.4 57 4.2 NW 9 13 5 7 1006.6 1006.6 0.2
28/12:30pm 16.1 14.2 7.6 57 4.3 NW 7 11 4 6 1007.2 1007.3 0.2
28/12:00pm 15.5 13.3 8.0 61 3.8 NNW 9 13 5 7 1007.7 1007.8 0.2
28/11:30am 13.9 10.9 7.7 66 3.1 N 13 17 7 9 1008.0 1008.1 0.0
28/11:00am 13.5 9.8 7.9 69 2.8 N 17 22 9 12 1008.4 1008.5 0.0
28/10:30am 12.9 8.5 6.7 66 3.0 N 19 24 10 13 1008.7 1008.8 0.0
28/10:00am 12.5 8.5 8.2 75 2.1 NNE 19 22 10 12 1008.9 1009.0 0.0
28/09:30am 11.9 8.3 8.4 79 1.7 NNE 17 19 9 10 1009.2 1009.3 0.0
28/09:00am 11.3 8.1 8.5 83 1.4 NNE 15 19 8 10 1009.5 1009.6 2.8
28/08:30am 10.0 6.5 7.4 84 1.2 NNE 15 20 8 11 1009.5 1009.6 2.8
28/08:00am 9.7 5.8 7.1 84 1.2 NE 17 20 9 11 1009.6 1009.7 2.8
28/07:30am 9.8 6.3 7.1 83 1.3 NNE 15 17 8 9 1009.6 1009.7 2.8
28/07:00am 9.7 5.6 6.4 80 1.5 NNE 17 20 9 11 1009.6 1009.7 2.8
28/06:30am 10.1 7.9 6.1 76 1.9 NW 7 13 4 7 1009.5 1009.6 2.2
28/06:00am 10.0 7.4 6.0 76 1.9 NW 9 13 5 7 1009.2 1009.3 2.2
28/05:30am 9.7 6.7 5.9 77 1.7 NW 11 15 6 8 1009.0 1009.1 2.2
28/05:00am 9.6 6.9 5.8 77 1.7 NW 9 15 5 8 1008.9 1009.0 2.2
28/04:30am 9.5 6.4 5.7 77 1.7 NW 11 15 6 8 1008.8 1008.9 2.2
28/04:00am 9.6 6.6 5.8 77 1.7 WNW 11 17 6 9 1008.7 1008.8 2.2
28/03:30am 9.8 6.4 6.0 77 1.8 W 13 19 7 10 1008.7 1008.8 2.2
28/03:00am 9.9 6.2 6.3 78 1.7 W 15 20 8 11 1008.7 1008.8 2.2
28/02:30am 10.0 6.7 6.5 79 1.6 W 13 20 7 11 1008.6 1008.7 2.2
28/02:00am 10.1 6.2 7.0 81 1.5 W 17 24 9 13 1008.6 1008.7 2.2
28/01:30am 10.5 6.4 7.7 83 1.3 W 19 24 10 13 1008.6 1008.7 2.2
28/01:00am 10.2 6.0 7.6 84 1.2 W 19 28 10 15 1008.4 1008.5 2.2
28/12:30am 10.2 6.1 8.0 86 1.1 W 19 26 10 14 1008.4 1008.5 2.2
28/12:00am 10.7 5.9 8.8 88 0.9 WNW 24 30 13 16 1008.2 1008.3 2.2
 
Date/Time
EST
Temp
°C
App
Temp
°C
Dew
Point
°C
Rel
Hum
%
Delta-T
°C
Wind Press
QNH
hPa
Press
MSL
hPa
Rain since
9am
mm
Dir  Spd
km/h
Gust
km/h
Spd
kts
Gust
kts
27/11:30pm 10.8 6.0 8.9 88 0.9 WNW 24 30 13 16 1008.2 1008.3 2.2
27/11:00pm 10.9 6.1 9.0 88 0.9 NNW 24 32 13 17 1008.0 1008.1 2.2
27/10:30pm 10.8 4.8 8.6 86 1.1 NNW 30 46 16 25 1007.7 1007.8 2.2
27/10:21pm 10.8 5.1 8.4 85 1.2 NNW 28 46 15 25 1007.6 1007.7 2.2
27/10:00pm 11.2 4.2 8.4 83 1.4 N 35 43 19 23 1007.5 1007.6 0.4
27/09:30pm 11.2 4.1 7.9 80 1.6 N 35 43 19 23 1007.6 1007.7 0.2
27/09:00pm 10.8 3.4 6.9 77 1.9 N 35 44 19 24 1007.8 1007.9 0.2
27/08:30pm 11.7 5.0 7.2 74 2.2 N 32 43 17 23 1007.9 1008.0 0.0
27/08:00pm 11.8 5.8 6.9 72 2.3 NNW 28 37 15 20 1008.3 1008.4 0.0
27/07:30pm 11.8 6.9 7.1 73 2.3 NNW 22 32 12 17 1008.3 1008.4 0.0
27/07:00pm 11.7 6.5 7.2 74 2.2 NNW 24 32 13 17 1008.4 1008.5 0.0
27/06:30pm 11.4 6.2 7.1 75 2.1 NNW 24 30 13 16 1008.2 1008.3 0.0
27/06:00pm 11.4 6.5 6.9 74 2.1 NW 22 28 12 15 1008.1 1008.2 0.0
27/05:30pm 11.8 7.5 7.1 73 2.3 NW 19 26 10 14 1007.9 1008.0 0.0
27/05:00pm 12.3 6.4 7.4 72 2.4 WNW 28 32 15 17 1007.8 1007.9 0.0
27/04:30pm 12.9 7.5 8.0 72 2.4 NW 26 35 14 19 1007.8 1007.9 0.0
27/04:00pm 13.9 8.6 8.5 70 2.7 NW 26 35 14 19 1007.5 1007.6 0.0
27/03:30pm 13.6 8.2 7.8 68 2.9 NW 26 32 14 17 1007.4 1007.5 0.0
27/03:00pm 13.8 9.1 7.6 66 3.1 NW 22 32 12 17 1007.4 1007.5 0.0
27/02:30pm 13.7 9.1 8.1 69 2.8 NW 22 28 12 15 1007.3 1007.4 0.0
27/02:00pm 15.2 11.2 9.1 67 3.1 NW 20 26 11 14 1007.4 1007.5 0.0
27/01:30pm 14.5 10.3 8.2 66 3.2 NW 20 28 11 15 1007.4 1007.5 0.0
27/01:00pm 16.2 11.7 8.7 61 3.8 NW 22 28 12 15 1007.5 1007.6 0.0
27/12:30pm 15.9 11.9 8.9 63 3.6 NW 20 30 11 16 1007.6 1007.7 0.0
27/12:00pm 15.4 11.2 8.2 62 3.6 NW 20 28 11 15 1007.7 1007.8 0.0
27/11:30am 16.1 13.4 9.1 63 3.6 NNW 13 17 7 9 1007.7 1007.8 0.0
27/11:00am 14.2 10.6 8.2 67 3.0 N 17 20 9 11 1007.8 1007.9 0.0
27/10:30am 13.9 10.6 7.9 67 3.0 N 15 19 8 10 1007.9 1008.0 0.0
27/10:00am 13.4 9.5 7.2 66 3.0 N 17 20 9 11 1008.1 1008.2 0.0
27/09:30am 12.8 8.6 7.3 69 2.7 NNE 19 20 10 11 1008.1 1008.2 0.0
27/09:00am 11.6 6.7 6.9 73 2.2 NNE 22 26 12 14 1007.9 1008.0 0.0
27/08:30am 10.7 6.1 6.5 75 2.0 NE 20 26 11 14 1007.9 1008.0 0.0
27/08:00am 10.2 5.8 6.5 78 1.7 NE 19 22 10 12 1007.8 1007.9 0.0
27/07:30am 9.5 5.9 6.6 82 1.4 NE 15 20 8 11 1007.6 1007.7 0.0
27/07:00am 8.3 4.1 5.8 84 1.1 ENE 17 20 9 11 1007.3 1007.4 0.0
27/06:30am 8.1 3.9 5.7 85 1.1 NE 17 20 9 11 1007.3 1007.4 0.0
27/06:00am 7.9 3.3 5.5 85 1.1 NE 19 22 10 12 1007.1 1007.2 0.0
27/05:30am 7.6 3.3 5.4 86 1.0 NE 17 20 9 11 1007.0 1007.1 0.0
27/05:00am 7.3 3.3 5.1 86 1.0 NE 15 19 8 10 1006.9 1006.9 0.0
27/04:30am 7.4 3.5 5.2 86 1.0 ENE 15 17 8 9 1006.9 1006.9 0.0
27/04:00am 7.3 3.3 5.1 86 1.0 ENE 15 17 8 9 1006.9 1006.9 0.0
27/03:30am 7.4 3.8 5.2 86 1.0 ENE 13 17 7 9 1006.8 1006.8 0.0
27/03:00am 7.1 3.1 4.9 86 1.0 ENE 15 19 8 10 1006.8 1006.8 0.0
27/02:30am 7.6 4.0 5.2 85 1.1 ENE 13 15 7 8 1007.0 1007.1 0.0
27/02:00am 8.4 4.6 6.0 85 1.1 NE 15 19 8 10 1007.0 1007.1 0.0
27/01:30am 8.2 4.4 5.8 85 1.1 NE 15 17 8 9 1007.3 1007.4 0.0
27/01:00am 8.3 4.5 5.8 84 1.1 NE 15 19 8 10 1007.3 1007.4 0.0
27/12:30am 8.6 4.9 6.1 84 1.1 NE 15 19 8 10 1007.4 1007.5 0.0
27/12:00am 8.7 5.0 6.2 84 1.2 NE 15 17 8 9 1007.7 1007.8 0.0
 
Date/Time
EST
Temp
°C
App
Temp
°C
Dew
Point
°C
Rel
Hum
%
Delta-T
°C
Wind Press
QNH
hPa
Press
MSL
hPa
Rain since
9am
mm
Dir  Spd
km/h
Gust
km/h
Spd
kts
Gust
kts
26/11:30pm 8.6 4.8 5.9 83 1.2 ENE 15 19 8 10 1007.8 1007.9 0.0
26/11:00pm 8.9 4.8 6.0 82 1.3 NE 17 19 9 10 1007.9 1008.0 0.0
26/10:30pm 9.6 5.9 6.5 81 1.4 NE 15 20 8 11 1008.2 1008.3 0.0
26/10:00pm 10.1 6.1 6.6 79 1.6 NE 17 22 9 12 1008.3 1008.4 0.0
26/09:30pm 10.3 5.7 6.6 78 1.7 NE 20 24 11 13 1008.4 1008.5 0.0
26/09:00pm 10.4 5.4 6.5 77 1.8 NE 22 28 12 15 1008.3 1008.4 0.0
26/08:30pm 10.6 6.0 6.4 75 2.0 NE 20 24 11 13 1008.3 1008.4 0.0
26/08:00pm 11.4 8.9 6.5 72 2.3 NNE 9 11 5 6 1008.5 1008.6 0.0
26/07:30pm 11.3 9.1 6.4 72 2.3 NNW 7 11 4 6 1008.5 1008.6 0.0
26/07:00pm 11.0 8.8 6.0 71 2.3 NW 7 11 4 6 1008.3 1008.4 0.0
26/06:30pm 11.0 8.3 5.5 69 2.5 NW 9 13 5 7 1008.2 1008.3 0.0
26/06:00pm 11.8 8.4 5.9 67 2.8 NW 13 19 7 10 1008.1 1008.2 0.0
26/05:30pm 12.3 8.9 5.9 65 3.0 NW 13 19 7 10 1008.0 1008.1 0.0
26/05:00pm 13.2 10.0 6.8 65 3.1 NW 13 19 7 10 1007.8 1007.9 0.0

Other Formats:

Comma delimited format used in spreadsheet applications
http://www.bom.gov.au/fwo/IDT60801/IDT60801.94974.axf

JavaScript Object Notation format (JSON) in row-major order
http://www.bom.gov.au/fwo/IDT60801/IDT60801.94974.json